createdAt,value
2019-02-20T10:43:22.616Z,9.60
2019-02-20T10:44:22.582Z,9.59
2019-02-20T10:45:22.569Z,9.63
2019-02-20T10:46:22.583Z,9.77
2019-02-20T10:47:22.551Z,9.74
2019-02-20T10:48:22.534Z,9.98
2019-02-20T10:49:23.767Z,10.07
2019-02-20T10:50:22.512Z,10.16
2019-02-20T10:51:22.527Z,10.24
2019-02-20T10:52:22.489Z,10.31
2019-02-20T10:53:22.478Z,10.36
2019-02-20T10:54:22.475Z,10.42
2019-02-20T10:55:22.460Z,10.49
2019-02-20T10:56:22.469Z,10.54
2019-02-20T10:57:22.435Z,10.55
2019-02-20T10:58:22.423Z,10.44
2019-02-20T10:59:22.411Z,10.57
2019-02-20T11:00:24.330Z,10.52
2019-02-20T11:01:22.413Z,10.52
2019-02-20T11:02:22.376Z,10.57
2019-02-20T11:03:22.366Z,10.54
2019-02-20T11:04:22.410Z,10.62
2019-02-20T11:05:22.343Z,10.57
2019-02-20T11:06:22.372Z,10.58
2019-02-20T11:07:22.322Z,10.60
2019-02-20T11:08:22.311Z,10.63
2019-02-20T11:09:22.301Z,10.68
2019-02-20T11:10:24.031Z,10.66
2019-02-20T11:11:22.277Z,10.69
2019-02-20T11:12:22.310Z,10.60
2019-02-20T11:13:22.251Z,10.62
2019-02-20T11:14:22.242Z,10.62
2019-02-20T11:15:22.230Z,10.58
2019-02-20T11:16:22.222Z,10.65
2019-02-20T11:17:22.235Z,10.62
2019-02-20T11:18:22.215Z,10.58
2019-02-20T11:19:22.192Z,10.58
2019-02-20T11:20:22.177Z,10.65
2019-02-20T11:21:22.169Z,10.62
2019-02-20T11:22:22.174Z,10.65
2019-02-20T11:23:22.138Z,10.80
2019-02-20T11:24:22.129Z,10.76
2019-02-20T11:25:22.119Z,10.72
2019-02-20T11:26:22.106Z,10.81
2019-02-20T11:27:22.121Z,10.84
2019-02-20T11:28:27.051Z,11.01
2019-02-20T11:29:23.073Z,11.03
2019-02-20T11:30:22.061Z,11.06
2019-02-20T11:31:22.050Z,11.17
2019-02-20T11:32:22.066Z,11.12
2019-02-20T11:33:22.031Z,11.19
2019-02-20T11:34:22.018Z,11.20
2019-02-20T11:35:22.006Z,11.20
2019-02-20T11:36:21.992Z,11.20
2019-02-20T11:37:22.008Z,11.30
2019-02-20T11:38:21.970Z,11.31
2019-02-20T11:39:21.959Z,11.33
2019-02-20T11:40:21.950Z,11.38
2019-02-20T11:41:21.937Z,11.41
2019-02-20T11:42:21.954Z,11.45
2019-02-20T11:43:21.912Z,11.39
2019-02-20T11:44:21.903Z,11.41
2019-02-20T11:45:21.891Z,11.48
2019-02-20T11:46:21.886Z,11.49
2019-02-20T11:47:21.896Z,11.45
2019-02-20T11:48:21.858Z,11.42
2019-02-20T11:49:21.848Z,11.44
2019-02-20T11:50:21.834Z,11.54
2019-02-20T11:51:21.827Z,11.48
2019-02-20T11:52:21.841Z,11.57
2019-02-20T11:53:21.801Z,11.62
2019-02-20T11:54:21.791Z,11.62
2019-02-20T11:55:21.783Z,11.62
2019-02-20T11:56:26.561Z,11.64
2019-02-20T11:57:21.781Z,11.69
2019-02-20T11:58:21.743Z,11.67
2019-02-20T11:59:21.732Z,11.59
2019-02-20T12:00:21.722Z,11.64
2019-02-20T12:01:21.716Z,11.59
2019-02-20T12:02:21.724Z,11.56
2019-02-20T12:03:21.709Z,11.51
2019-02-20T12:04:21.675Z,11.51
2019-02-20T12:05:21.666Z,11.41
2019-02-20T12:06:21.654Z,11.53
2019-02-20T12:07:21.679Z,11.41
2019-02-20T12:08:21.658Z,11.45
2019-02-20T12:09:21.620Z,11.42
2019-02-20T12:10:21.608Z,11.54
2019-02-20T12:11:21.601Z,11.51
2019-02-20T12:12:21.590Z,11.42
2019-02-20T12:13:21.599Z,11.45
2019-02-20T12:14:24.238Z,11.41
2019-02-20T12:15:21.551Z,11.48
2019-02-20T12:16:21.540Z,11.42
2019-02-20T12:17:21.531Z,11.39
2019-02-20T12:18:21.543Z,11.36
2019-02-20T12:19:23.495Z,11.45
2019-02-20T12:20:21.496Z,11.33
2019-02-20T12:21:21.483Z,11.35
2019-02-20T12:22:21.480Z,11.36
2019-02-20T12:23:21.485Z,11.41
2019-02-20T12:24:21.451Z,11.42
2019-02-20T12:25:21.442Z,11.33
2019-02-20T12:26:21.433Z,11.42
2019-02-20T12:27:21.419Z,11.48
2019-02-20T12:28:21.429Z,11.51
2019-02-20T12:29:21.398Z,11.67
2019-02-20T12:30:21.385Z,11.63
2019-02-20T12:31:21.370Z,11.63
2019-02-20T12:32:21.362Z,11.78
2019-02-20T12:33:21.372Z,11.82
2019-02-20T12:34:21.336Z,11.74
2019-02-20T12:35:21.339Z,11.87
2019-02-20T12:36:21.319Z,11.85
2019-02-20T12:37:21.305Z,11.85
2019-02-20T12:38:21.318Z,11.75
2019-02-20T12:39:21.281Z,11.78
2019-02-20T12:40:21.273Z,11.72
2019-02-20T12:41:21.260Z,11.88
2019-02-20T12:42:21.247Z,11.98
2019-02-20T12:43:21.261Z,12.03
2019-02-20T12:44:21.223Z,12.19
2019-02-20T12:45:21.213Z,12.25
2019-02-20T12:46:21.200Z,12.29
2019-02-20T12:47:21.192Z,12.30
2019-02-20T12:48:21.203Z,12.29
2019-02-20T12:49:21.167Z,12.34
2019-02-20T12:50:21.157Z,12.49
2019-02-20T12:51:21.147Z,12.40
2019-02-20T12:52:21.134Z,12.41
2019-02-20T12:53:21.149Z,12.43
2019-02-20T12:54:21.111Z,12.51
2019-02-20T12:55:21.098Z,12.56
2019-02-20T12:56:21.090Z,12.73
2019-02-20T12:57:21.076Z,12.71
2019-02-20T12:58:21.090Z,12.76
2019-02-20T12:59:21.057Z,12.71
2019-02-20T13:00:21.048Z,12.87
2019-02-20T13:01:21.035Z,12.88
2019-02-20T13:02:21.020Z,12.84
2019-02-20T13:03:21.035Z,12.85
2019-02-20T13:04:20.997Z,12.91
2019-02-20T13:05:20.985Z,12.87
2019-02-20T13:06:20.977Z,12.87
2019-02-20T13:07:20.963Z,12.85
2019-02-20T13:08:20.976Z,12.87
2019-02-20T13:09:20.940Z,12.94
2019-02-20T13:10:20.931Z,12.95
2019-02-20T13:11:20.918Z,12.94
2019-02-20T13:12:20.907Z,12.85
2019-02-20T13:13:20.899Z,12.89
2019-02-20T13:14:20.909Z,12.84
2019-02-20T13:15:20.872Z,12.79
2019-02-20T13:16:20.859Z,12.76
2019-02-20T13:17:20.849Z,12.70
2019-02-20T13:18:20.841Z,12.81
2019-02-20T13:19:20.852Z,12.74
2019-02-20T13:20:21.377Z,12.73
2019-02-20T13:21:20.804Z,12.80
2019-02-20T13:22:20.794Z,12.74
2019-02-20T13:23:20.784Z,12.80
2019-02-20T13:24:20.795Z,12.77
2019-02-20T13:25:21.114Z,12.70
2019-02-20T13:26:20.747Z,12.61
2019-02-20T13:27:23.062Z,12.63
2019-02-20T13:28:20.727Z,12.56
2019-02-20T13:29:20.737Z,12.73
2019-02-20T13:30:20.701Z,12.73
2019-02-20T13:31:20.692Z,12.70
2019-02-20T13:32:20.679Z,12.79
2019-02-20T13:33:20.668Z,12.80
2019-02-20T13:34:20.685Z,12.85
2019-02-20T13:35:20.648Z,12.92
2019-02-20T13:36:20.641Z,12.96
2019-02-20T13:37:20.628Z,12.89
2019-02-20T13:38:20.611Z,12.91
2019-02-20T13:39:20.626Z,12.94
2019-02-20T13:40:20.590Z,12.80
2019-02-20T13:41:20.582Z,12.89
2019-02-20T13:42:20.567Z,12.98
2019-02-20T13:43:20.554Z,12.95
2019-02-20T13:44:20.569Z,12.98
2019-02-20T13:45:20.538Z,12.91
2019-02-20T13:46:20.521Z,12.85
2019-02-20T13:47:20.511Z,12.88
2019-02-20T13:48:20.497Z,12.89
2019-02-20T13:49:20.512Z,12.85
2019-02-20T13:50:20.477Z,12.74
2019-02-20T13:51:20.463Z,12.79
2019-02-20T13:52:20.453Z,12.71
2019-02-20T13:53:20.447Z,12.80
2019-02-20T13:54:20.455Z,12.92
2019-02-20T13:55:20.470Z,12.98
2019-02-20T13:56:20.407Z,12.95
2019-02-20T13:57:20.396Z,12.92
2019-02-20T13:58:20.385Z,13.03
2019-02-20T13:59:20.400Z,13.03
2019-02-20T14:00:20.373Z,12.95
2019-02-20T14:01:20.353Z,12.98
2019-02-20T14:02:20.347Z,13.01
2019-02-20T14:03:20.331Z,12.98
2019-02-20T14:04:20.344Z,12.96
2019-02-20T14:05:20.307Z,12.89
2019-02-20T14:06:20.294Z,12.89
2019-02-20T14:07:20.283Z,12.88
2019-02-20T14:08:20.271Z,12.85
2019-02-20T14:09:20.283Z,12.94
2019-02-20T14:10:20.249Z,12.95
2019-02-20T14:11:20.242Z,12.91
2019-02-20T14:12:20.228Z,13.04
2019-02-20T14:13:20.213Z,13.01
2019-02-20T14:14:20.204Z,13.09
2019-02-20T14:15:20.225Z,12.94
2019-02-20T14:16:20.183Z,12.95
2019-02-20T14:17:26.486Z,12.94
2019-02-20T14:18:21.156Z,12.94
2019-02-20T14:19:20.149Z,12.91
2019-02-20T14:20:20.170Z,12.79
2019-02-20T14:21:20.123Z,12.76
2019-02-20T14:22:20.791Z,12.85
2019-02-20T14:23:20.103Z,12.88
2019-02-20T14:24:20.104Z,12.84
2019-02-20T14:25:20.103Z,12.79
2019-02-20T14:26:20.080Z,12.84
2019-02-20T14:27:20.062Z,12.85
2019-02-20T14:28:20.046Z,12.74
2019-02-20T14:29:20.035Z,12.74
2019-02-20T14:30:20.047Z,12.77
2019-02-20T14:31:20.010Z,12.70
2019-02-20T14:32:20.000Z,12.79
2019-02-20T14:33:19.988Z,12.79
2019-02-20T14:34:19.982Z,12.74
2019-02-20T14:35:19.991Z,12.87
2019-02-20T14:36:19.953Z,12.87
2019-02-20T14:37:19.946Z,12.85
2019-02-20T14:38:19.933Z,12.89
2019-02-20T14:39:19.922Z,12.94
2019-02-20T14:40:19.932Z,12.99
2019-02-20T14:41:21.359Z,12.99
2019-02-20T14:42:19.885Z,12.89
2019-02-20T14:43:19.879Z,12.80
2019-02-20T14:44:19.863Z,12.84
2019-02-20T14:45:19.878Z,12.81
2019-02-20T14:46:19.846Z,12.67
2019-02-20T14:47:19.831Z,12.69
2019-02-20T14:48:19.819Z,12.71
2019-02-20T14:49:19.807Z,12.71
2019-02-20T14:50:19.820Z,12.73
2019-02-20T14:51:19.787Z,12.84
2019-02-20T14:52:19.773Z,12.84
2019-02-20T14:53:19.765Z,12.80
2019-02-20T14:54:19.750Z,12.81
2019-02-20T14:55:19.764Z,12.74
2019-02-20T14:56:19.757Z,12.87
2019-02-20T14:57:19.900Z,12.88
2019-02-20T14:58:19.706Z,12.96
2019-02-20T14:59:19.695Z,12.92
2019-02-20T15:00:19.709Z,13.01
2019-02-20T15:01:19.671Z,13.04
2019-02-20T15:02:19.663Z,12.99
2019-02-20T15:03:19.821Z,13.09
2019-02-20T15:04:19.636Z,13.13
2019-02-20T15:05:19.649Z,13.27
2019-02-20T15:06:19.619Z,13.28
2019-02-20T15:07:19.604Z,13.41
2019-02-20T15:08:19.591Z,13.53
2019-02-20T15:09:19.579Z,13.53
2019-02-20T15:10:19.594Z,13.51
2019-02-20T15:11:19.556Z,13.50
2019-02-20T15:12:19.547Z,13.44
2019-02-20T15:13:19.538Z,13.31
2019-02-20T15:14:19.523Z,13.21
2019-02-20T15:15:19.539Z,13.14
2019-02-20T15:16:19.500Z,13.13
2019-02-20T15:17:19.489Z,13.12
2019-02-20T15:18:19.478Z,13.10
2019-02-20T15:19:19.467Z,13.27
2019-02-20T15:20:19.479Z,13.21
2019-02-20T15:21:19.452Z,13.12
2019-02-20T15:22:19.435Z,12.96
2019-02-20T15:23:19.423Z,12.92
2019-02-20T15:24:19.410Z,12.95
2019-02-20T15:25:19.424Z,12.88
2019-02-20T15:26:19.386Z,12.98
2019-02-20T15:27:28.278Z,12.95
2019-02-20T15:28:20.364Z,12.95
2019-02-20T15:29:19.354Z,12.94
2019-02-20T15:30:19.366Z,12.87
2019-02-20T15:31:21.303Z,12.99
2019-02-20T15:32:19.320Z,12.94
2019-02-20T15:33:19.309Z,12.87
2019-02-20T15:34:19.299Z,12.79
2019-02-20T15:35:19.288Z,12.73
2019-02-20T15:36:19.299Z,12.67
2019-02-20T15:37:19.262Z,12.67
2019-02-20T15:38:19.251Z,12.70
2019-02-20T15:39:19.242Z,12.52
2019-02-20T15:40:19.237Z,12.49
2019-02-20T15:41:19.241Z,12.54
2019-02-20T15:42:19.207Z,12.41
2019-02-20T15:43:19.193Z,12.43
2019-02-20T15:44:19.182Z,12.41
2019-02-20T15:45:19.175Z,12.43
2019-02-20T15:46:19.185Z,12.37
2019-02-20T15:47:19.149Z,12.37
2019-02-20T15:48:23.211Z,12.33
2019-02-20T15:49:19.132Z,12.36
2019-02-20T15:50:19.125Z,12.38
2019-02-20T15:51:19.130Z,12.30
2019-02-20T15:52:19.096Z,12.37
2019-02-20T15:53:19.080Z,12.30
2019-02-20T15:54:19.071Z,12.25
2019-02-20T15:55:19.062Z,12.26
2019-02-20T15:56:19.073Z,12.33
2019-02-20T15:57:19.037Z,12.30
2019-02-20T15:58:19.030Z,12.34
2019-02-20T15:59:19.012Z,12.33
2019-02-20T16:00:19.036Z,12.40
2019-02-20T16:01:19.016Z,12.41
2019-02-20T16:02:18.980Z,12.30
2019-02-20T16:03:18.966Z,12.30
2019-02-20T16:04:18.957Z,12.30
2019-02-20T16:05:18.946Z,12.33
2019-02-20T16:06:18.960Z,12.34
2019-02-20T16:07:18.922Z,12.37
2019-02-20T16:08:18.921Z,12.36
2019-02-20T16:09:18.899Z,12.29
2019-02-20T16:10:18.889Z,12.29
2019-02-20T16:11:18.901Z,12.30
2019-02-20T16:12:18.865Z,12.37
2019-02-20T16:13:18.855Z,12.38
2019-02-20T16:14:18.842Z,12.37
2019-02-20T16:15:18.832Z,12.26
2019-02-20T16:16:18.825Z,12.29
2019-02-20T16:17:18.836Z,12.25
2019-02-20T16:18:19.995Z,12.26
2019-02-20T16:19:18.787Z,12.31
2019-02-20T16:20:18.774Z,12.23
2019-02-20T16:21:18.767Z,12.25
2019-02-20T16:22:18.778Z,12.22
2019-02-20T16:23:18.742Z,12.25
2019-02-20T16:24:18.729Z,12.25
2019-02-20T16:25:18.747Z,12.30
2019-02-20T16:26:18.710Z,12.37
2019-02-20T16:27:19.178Z,12.22
2019-02-20T16:28:18.685Z,12.23
2019-02-20T16:29:18.678Z,12.25
2019-02-20T16:30:18.662Z,12.30
2019-02-20T16:31:18.658Z,12.25
2019-02-20T16:32:18.665Z,12.30
2019-02-20T16:33:18.628Z,12.26
2019-02-20T16:34:18.620Z,12.23
2019-02-20T16:35:18.606Z,12.23
2019-02-20T16:36:18.593Z,12.23
2019-02-20T16:37:18.607Z,12.16
2019-02-20T16:38:18.571Z,12.18
2019-02-20T16:39:18.562Z,12.19
2019-02-20T16:40:18.549Z,12.12
2019-02-20T16:41:18.537Z,12.22
2019-02-20T16:42:18.552Z,12.15
2019-02-20T16:43:18.525Z,12.07
2019-02-20T16:44:18.502Z,12.11
2019-02-20T16:45:18.494Z,12.00
2019-02-20T16:46:18.480Z,12.07
2019-02-20T16:47:18.493Z,12.03
2019-02-20T16:48:18.457Z,11.98
2019-02-20T16:49:18.447Z,11.96
2019-02-20T16:50:18.433Z,12.00
2019-02-20T16:51:18.425Z,11.98
2019-02-20T16:52:18.438Z,11.81
2019-02-20T16:53:18.423Z,11.87
2019-02-20T16:54:18.392Z,11.90
2019-02-20T16:55:19.821Z,11.79
2019-02-20T16:56:18.368Z,11.77
2019-02-20T16:57:18.382Z,11.70
2019-02-20T16:58:18.344Z,11.77
2019-02-20T16:59:18.334Z,11.63
2019-02-20T17:00:18.322Z,11.66
2019-02-20T17:01:18.311Z,11.54
2019-02-20T17:02:18.324Z,11.49
2019-02-20T17:03:18.287Z,11.54
2019-02-20T17:04:18.282Z,11.49
2019-02-20T17:05:18.266Z,11.46
2019-02-20T17:06:18.255Z,11.49
2019-02-20T17:07:18.246Z,11.38
2019-02-20T17:08:18.265Z,11.36
2019-02-20T17:09:18.222Z,11.31
2019-02-20T17:10:18.212Z,11.35
2019-02-20T17:11:18.197Z,11.46
2019-02-20T17:12:18.188Z,11.24
2019-02-20T17:13:18.199Z,11.24
2019-02-20T17:14:18.166Z,11.27
2019-02-20T17:15:18.153Z,11.42
2019-02-20T17:16:18.145Z,11.44
2019-02-20T17:17:18.133Z,11.42
2019-02-20T17:18:18.148Z,11.42
2019-02-20T17:19:18.108Z,11.42
2019-02-20T17:20:18.099Z,11.41
2019-02-20T17:21:18.087Z,11.38
2019-02-20T17:22:18.074Z,11.36
2019-02-20T17:23:18.087Z,11.33
2019-02-20T17:24:18.053Z,11.36
2019-02-20T17:25:18.054Z,11.30
2019-02-20T17:26:18.029Z,11.30
2019-02-20T17:27:18.017Z,11.31
2019-02-20T17:28:18.061Z,11.17
2019-02-20T17:29:17.995Z,11.12
2019-02-20T17:30:17.987Z,11.16
2019-02-20T17:31:17.973Z,11.03
2019-02-20T17:32:17.974Z,11.11
2019-02-20T17:33:17.973Z,11.06
2019-02-20T17:34:17.939Z,10.99
2019-02-20T17:35:17.928Z,11.01
2019-02-20T17:36:17.917Z,11.01
2019-02-20T17:37:17.906Z,10.93
2019-02-20T17:38:17.921Z,10.83
2019-02-20T17:39:17.888Z,10.78
2019-02-20T17:40:17.869Z,10.80
2019-02-20T17:41:17.857Z,10.75
2019-02-20T17:42:17.849Z,10.78
2019-02-20T17:43:17.860Z,10.60
2019-02-20T17:44:17.828Z,10.54
2019-02-20T17:45:17.872Z,10.47
2019-02-20T17:46:18.704Z,10.46
2019-02-20T17:47:17.791Z,10.49
2019-02-20T17:48:19.153Z,10.46
2019-02-20T17:49:17.767Z,10.35
2019-02-20T17:50:17.763Z,10.26
2019-02-20T17:51:17.745Z,10.18
2019-02-20T17:52:17.733Z,10.16
2019-02-20T17:53:17.758Z,10.14
2019-02-20T17:54:17.714Z,10.07
2019-02-20T17:55:17.716Z,10.01
2019-02-20T17:56:17.691Z,9.96
2019-02-20T17:57:17.689Z,9.89
2019-02-20T17:58:17.695Z,9.83
2019-02-20T17:59:17.656Z,9.75
2019-02-20T18:00:17.647Z,9.75
2019-02-20T18:01:17.636Z,9.63
2019-02-20T18:02:17.620Z,9.60
2019-02-20T18:03:17.613Z,9.62
2019-02-20T18:04:17.656Z,9.55
2019-02-20T18:05:17.590Z,9.56
2019-02-20T18:06:17.576Z,9.38
2019-02-20T18:07:17.566Z,9.45
2019-02-20T18:08:17.554Z,9.41
2019-02-20T18:09:17.572Z,9.44
2019-02-20T18:10:17.536Z,9.30
2019-02-20T18:11:17.519Z,9.34
2019-02-20T18:12:17.510Z,9.20
2019-02-20T18:13:17.504Z,9.26
2019-02-20T18:14:17.513Z,9.20
2019-02-20T18:15:17.478Z,9.19
2019-02-20T18:16:17.465Z,9.06
2019-02-20T18:17:17.452Z,9.00
2019-02-20T18:18:17.443Z,8.97
2019-02-20T18:19:17.455Z,9.00
2019-02-20T18:20:17.420Z,9.00
2019-02-20T18:21:17.430Z,8.94
2019-02-20T18:22:17.400Z,8.94
2019-02-20T18:23:17.395Z,8.91
2019-02-20T18:24:17.396Z,8.88
2019-02-20T18:25:17.367Z,8.93
2019-02-20T18:26:17.350Z,8.82
2019-02-20T18:27:17.339Z,8.79
2019-02-20T18:28:24.198Z,8.79
2019-02-20T18:29:18.344Z,8.75
2019-02-20T18:30:17.310Z,8.73
2019-02-20T18:31:17.300Z,8.75
2019-02-20T18:32:17.287Z,8.71
2019-02-20T18:33:17.269Z,8.76
2019-02-20T18:34:17.283Z,8.73
2019-02-20T18:35:17.262Z,8.71
2019-02-20T18:36:17.238Z,8.71
2019-02-20T18:37:17.224Z,8.71
2019-02-20T18:38:17.215Z,8.75
2019-02-20T18:39:17.225Z,8.76
2019-02-20T18:40:17.197Z,8.93
2019-02-20T18:41:17.183Z,9.01
2019-02-20T18:42:17.172Z,8.94
2019-02-20T18:43:17.157Z,8.97
2019-02-20T18:44:17.177Z,9.04
2019-02-20T18:45:17.173Z,9.12
2019-02-20T18:46:17.124Z,9.19
2019-02-20T18:47:17.113Z,9.15
2019-02-20T18:48:17.105Z,9.19
2019-02-20T18:49:17.128Z,9.15
2019-02-20T18:50:17.118Z,9.16
2019-02-20T18:51:17.069Z,9.17
2019-02-20T18:52:17.056Z,9.19
2019-02-20T18:53:17.046Z,9.17
2019-02-20T18:54:17.074Z,9.17
2019-02-20T18:55:17.022Z,9.16
2019-02-20T18:56:17.010Z,9.15
2019-02-20T18:57:17.034Z,9.22
2019-02-20T18:58:18.968Z,9.17
2019-02-20T18:59:16.990Z,9.20
2019-02-20T19:00:16.999Z,9.17
2019-02-20T19:01:16.955Z,9.13
2019-02-20T19:02:16.944Z,9.17
2019-02-20T19:03:16.963Z,9.15
2019-02-20T19:04:16.934Z,9.03
2019-02-20T19:05:18.877Z,9.03
2019-02-20T19:06:16.919Z,9.00
2019-02-20T19:07:16.885Z,9.01
2019-02-20T19:08:16.876Z,9.04
2019-02-20T19:09:16.905Z,9.01
2019-02-20T19:10:16.878Z,9.06
2019-02-20T19:11:16.845Z,9.01
2019-02-20T19:12:16.829Z,9.03
2019-02-20T19:13:16.835Z,9.00
2019-02-20T19:14:16.812Z,8.93
2019-02-20T19:15:16.826Z,9.00
2019-02-20T19:16:16.815Z,8.93
2019-02-20T19:17:16.789Z,8.82
2019-02-20T19:18:16.766Z,8.75
2019-02-20T19:19:16.750Z,8.83
2019-02-20T19:20:16.780Z,8.65
2019-02-20T19:21:16.733Z,8.65
2019-02-20T19:22:16.774Z,8.70
2019-02-20T19:23:16.712Z,8.71
2019-02-20T19:24:16.694Z,8.65
2019-02-20T19:25:16.714Z,8.65
2019-02-20T19:26:16.670Z,8.71
2019-02-20T19:27:16.676Z,8.73
2019-02-20T19:28:16.656Z,8.73
2019-02-20T19:29:16.638Z,8.71
2019-02-20T19:30:16.666Z,8.71
2019-02-20T19:31:16.616Z,8.70
2019-02-20T19:32:16.605Z,8.76
2019-02-20T19:33:16.599Z,8.75
2019-02-20T19:34:16.605Z,8.73
2019-02-20T19:35:16.594Z,8.65
2019-02-20T19:36:16.603Z,8.65
2019-02-20T19:37:16.576Z,8.75
2019-02-20T19:38:16.537Z,8.65
2019-02-20T19:39:16.527Z,8.65
2019-02-20T19:40:16.538Z,8.67
2019-02-20T19:41:16.553Z,8.64
2019-02-20T19:42:18.566Z,8.61
2019-02-20T19:43:26.806Z,8.65
2019-02-20T19:44:17.484Z,8.60
2019-02-20T19:45:16.477Z,8.61
2019-02-20T19:46:16.532Z,8.61
2019-02-20T19:47:16.461Z,8.55
2019-02-20T19:48:16.421Z,8.55
2019-02-20T19:49:16.416Z,8.55
2019-02-20T19:50:16.401Z,8.52
2019-02-20T19:51:16.494Z,8.52
2019-02-20T19:52:16.377Z,8.43
2019-02-20T19:53:16.367Z,8.49
2019-02-20T19:54:16.359Z,8.42
2019-02-20T19:55:16.346Z,8.42
2019-02-20T19:56:16.335Z,8.37
2019-02-20T19:57:16.361Z,8.39
2019-02-20T19:58:16.321Z,8.40
2019-02-20T19:59:16.316Z,8.32
2019-02-20T20:00:16.309Z,8.37
2019-02-20T20:01:16.303Z,8.27
2019-02-20T20:02:16.294Z,8.39
2019-02-20T20:03:16.262Z,8.31
2019-02-20T20:04:16.264Z,8.28
2019-02-20T20:05:16.230Z,8.22
2019-02-20T20:06:16.244Z,8.25
2019-02-20T20:07:16.258Z,8.24
2019-02-20T20:08:16.197Z,8.27
2019-02-20T20:09:16.189Z,8.27
2019-02-20T20:10:16.197Z,8.28
2019-02-20T20:11:16.188Z,8.24
2019-02-20T20:12:16.191Z,8.24
2019-02-20T20:13:16.153Z,8.18
2019-02-20T20:14:16.128Z,8.18
2019-02-20T20:15:16.147Z,8.17
2019-02-20T20:16:17.585Z,8.22
2019-02-20T20:17:16.112Z,8.10
2019-02-20T20:18:18.893Z,8.12
2019-02-20T20:19:16.139Z,8.14
2019-02-20T20:20:16.082Z,8.09
2019-02-20T20:21:16.069Z,8.10
2019-02-20T20:22:16.069Z,8.00
2019-02-20T20:23:16.080Z,8.06
2019-02-20T20:24:16.016Z,8.03
2019-02-20T20:25:16.023Z,8.03
2019-02-20T20:26:15.995Z,8.04
2019-02-20T20:27:15.986Z,8.00
2019-02-20T20:28:16.062Z,8.03
2019-02-20T20:29:15.962Z,8.04
2019-02-20T20:30:15.983Z,7.99
2019-02-20T20:31:15.966Z,8.03
2019-02-20T20:32:15.929Z,8.04
2019-02-20T20:33:15.939Z,8.00
2019-02-20T20:34:15.944Z,8.04
2019-02-20T20:35:15.892Z,8.03
2019-02-20T20:36:15.910Z,8.09
2019-02-20T20:37:15.871Z,8.02
2019-02-20T20:38:15.883Z,8.09
2019-02-20T20:39:15.848Z,8.04
2019-02-20T20:40:15.837Z,7.92
2019-02-20T20:41:15.824Z,7.91
2019-02-20T20:42:15.812Z,7.91
2019-02-20T20:43:15.828Z,7.92
2019-02-20T20:44:15.791Z,7.86
2019-02-20T20:45:15.779Z,7.84
2019-02-20T20:46:15.769Z,7.81
2019-02-20T20:47:15.760Z,7.82
2019-02-20T20:48:15.748Z,7.86
2019-02-20T20:49:15.758Z,7.79
2019-02-20T20:50:15.797Z,7.76
2019-02-20T20:51:15.710Z,7.81
2019-02-20T20:52:15.706Z,7.73
2019-02-20T20:53:15.691Z,7.81
2019-02-20T20:54:15.701Z,7.67
2019-02-20T20:55:15.667Z,7.76
2019-02-20T20:56:15.655Z,7.71
2019-02-20T20:57:15.649Z,7.71
2019-02-20T20:58:15.632Z,7.60
2019-02-20T20:59:17.875Z,7.73
2019-02-20T21:00:15.610Z,7.63
2019-02-20T21:01:15.600Z,7.67
2019-02-20T21:02:15.586Z,7.60
2019-02-20T21:03:15.579Z,7.62
2019-02-20T21:04:15.568Z,7.62
2019-02-20T21:05:15.583Z,7.62
2019-02-20T21:06:15.544Z,7.51
2019-02-20T21:07:15.531Z,7.55
2019-02-20T21:08:15.520Z,7.57
2019-02-20T21:09:15.512Z,7.58
2019-02-20T21:10:15.524Z,7.55
2019-02-20T21:11:15.485Z,7.52
2019-02-20T21:12:15.479Z,7.51
2019-02-20T21:13:15.463Z,7.51
2019-02-20T21:14:15.453Z,7.55
2019-02-20T21:15:15.475Z,7.54
2019-02-20T21:16:15.430Z,7.55
2019-02-20T21:17:16.018Z,7.52
2019-02-20T21:18:15.407Z,7.54
2019-02-20T21:19:21.642Z,7.54
2019-02-20T21:20:16.410Z,7.39
2019-02-20T21:21:15.373Z,7.42
2019-02-20T21:22:15.362Z,7.44
2019-02-20T21:23:15.351Z,7.37
2019-02-20T21:24:15.339Z,7.42
2019-02-20T21:25:15.358Z,7.34
2019-02-20T21:26:15.321Z,7.39
2019-02-20T21:27:15.310Z,7.44
2019-02-20T21:28:15.296Z,7.47
2019-02-20T21:29:15.282Z,7.36
2019-02-20T21:30:15.295Z,7.30
2019-02-20T21:31:15.260Z,7.30
2019-02-20T21:32:15.250Z,7.29
2019-02-20T21:33:15.239Z,7.34
2019-02-20T21:34:15.231Z,7.30
2019-02-20T21:35:15.217Z,7.27
2019-02-20T21:36:15.230Z,7.33
2019-02-20T21:37:15.194Z,7.26
2019-02-20T21:38:15.180Z,7.23
2019-02-20T21:39:15.169Z,7.19
2019-02-20T21:40:15.161Z,7.21
2019-02-20T21:41:15.172Z,7.21
2019-02-20T21:42:15.136Z,7.21
2019-02-20T21:43:15.125Z,7.14
2019-02-20T21:44:15.115Z,7.18
2019-02-20T21:45:15.102Z,7.14
2019-02-20T21:46:15.118Z,7.12
2019-02-20T21:47:15.080Z,7.09
2019-02-20T21:48:15.070Z,7.11
2019-02-20T21:49:15.057Z,7.04
2019-02-20T21:50:15.048Z,7.09
2019-02-20T21:51:15.074Z,7.00
2019-02-20T21:52:15.026Z,7.05
2019-02-20T21:53:15.018Z,7.01
2019-02-20T21:54:15.003Z,7.05
2019-02-20T21:55:14.990Z,7.04
2019-02-20T21:56:14.980Z,7.01
2019-02-20T21:57:15.027Z,6.97
2019-02-20T21:58:14.958Z,6.94
2019-02-20T21:59:14.948Z,6.93
2019-02-20T22:00:14.935Z,7.07
2019-02-20T22:01:14.924Z,6.94
2019-02-20T22:02:14.939Z,6.99
2019-02-20T22:03:14.902Z,6.89
2019-02-20T22:04:14.892Z,6.89
2019-02-20T22:05:14.878Z,6.87
2019-02-20T22:06:14.867Z,6.89
2019-02-20T22:07:14.884Z,6.93
2019-02-20T22:08:14.847Z,6.76
2019-02-20T22:09:14.834Z,6.83
2019-02-20T22:10:14.823Z,6.83
2019-02-20T22:11:14.813Z,6.90
2019-02-20T22:12:14.826Z,6.87
2019-02-20T22:13:14.794Z,6.87
2019-02-20T22:14:14.776Z,6.89
2019-02-20T22:15:14.837Z,6.89
2019-02-20T22:16:14.755Z,6.86
2019-02-20T22:17:14.745Z,6.81
2019-02-20T22:18:14.761Z,6.79
2019-02-20T22:19:14.722Z,6.82
2019-02-20T22:20:14.713Z,6.68
2019-02-20T22:21:14.700Z,6.78
2019-02-20T22:22:14.687Z,6.81
2019-02-20T22:23:14.707Z,6.78
2019-02-20T22:24:14.666Z,6.79
2019-02-20T22:25:14.654Z,6.82
2019-02-20T22:26:14.643Z,6.75
2019-02-20T22:27:14.633Z,6.75
2019-02-20T22:28:14.648Z,6.73
2019-02-20T22:29:14.609Z,6.64
2019-02-20T22:30:14.597Z,6.60
2019-02-20T22:31:14.588Z,6.60
2019-02-20T22:32:14.575Z,6.57
2019-02-20T22:33:14.605Z,6.54
2019-02-20T22:34:14.556Z,6.53
2019-02-20T22:35:14.543Z,6.57
2019-02-20T22:36:14.531Z,6.48
2019-02-20T22:37:14.519Z,6.46
2019-02-20T22:38:15.071Z,6.45
2019-02-20T22:39:14.523Z,6.50
2019-02-20T22:40:14.487Z,6.50
2019-02-20T22:41:14.474Z,6.36
2019-02-20T22:42:14.469Z,6.45
2019-02-20T22:43:14.454Z,6.42
2019-02-20T22:44:14.470Z,6.38
2019-02-20T22:45:14.430Z,6.38
2019-02-20T22:46:14.421Z,6.35
2019-02-20T22:47:14.407Z,6.33
2019-02-20T22:48:14.396Z,6.17
2019-02-20T22:49:14.412Z,6.27
2019-02-20T22:50:14.823Z,6.28
2019-02-20T22:51:14.367Z,6.27
2019-02-20T22:52:14.352Z,6.19
2019-02-20T22:53:14.340Z,6.20
2019-02-20T22:54:14.357Z,6.32
2019-02-20T22:55:14.320Z,6.27
2019-02-20T22:56:14.310Z,6.30
2019-02-20T22:57:14.297Z,6.28
2019-02-20T22:58:14.294Z,6.28
2019-02-20T22:59:14.301Z,6.21
2019-02-20T23:00:14.263Z,6.16
2019-02-20T23:01:14.258Z,6.14
2019-02-20T23:02:14.238Z,6.08
2019-02-20T23:03:14.230Z,6.08
2019-02-20T23:04:14.251Z,6.10
2019-02-20T23:05:14.206Z,6.01
2019-02-20T23:06:14.195Z,6.02
2019-02-20T23:07:14.187Z,6.03
2019-02-20T23:08:14.172Z,6.10
2019-02-20T23:09:14.186Z,6.14
2019-02-20T23:10:14.149Z,6.14
2019-02-20T23:11:14.136Z,6.06
2019-02-20T23:12:14.128Z,6.25
2019-02-20T23:13:14.114Z,6.20
2019-02-20T23:14:14.130Z,6.17
2019-02-20T23:15:14.092Z,6.20
2019-02-20T23:16:14.082Z,6.13
2019-02-20T23:17:14.068Z,6.14
2019-02-20T23:18:14.058Z,6.16
2019-02-20T23:19:14.072Z,6.05
2019-02-20T23:20:14.034Z,5.98
2019-02-20T23:21:14.024Z,5.98
2019-02-20T23:22:14.013Z,5.93
2019-02-20T23:23:14.002Z,5.96
2019-02-20T23:24:13.992Z,5.92
2019-02-20T23:25:14.004Z,5.92
2019-02-20T23:26:13.967Z,5.92
2019-02-20T23:27:13.954Z,5.83
2019-02-20T23:28:13.946Z,5.81
2019-02-20T23:29:13.934Z,5.84
2019-02-20T23:30:13.947Z,5.74
2019-02-20T23:31:13.910Z,5.74
2019-02-20T23:32:13.900Z,5.69
2019-02-20T23:33:13.888Z,5.78
2019-02-20T23:34:13.881Z,5.75
2019-02-20T23:35:13.909Z,5.80
2019-02-20T23:36:13.856Z,5.70
2019-02-20T23:37:13.843Z,5.69
2019-02-20T23:38:13.835Z,5.70
2019-02-20T23:39:13.823Z,5.66
2019-02-20T23:40:13.813Z,5.65
2019-02-20T23:41:13.830Z,5.70
2019-02-20T23:42:13.790Z,5.74
2019-02-20T23:43:13.778Z,5.65
2019-02-20T23:44:13.765Z,5.65
2019-02-20T23:45:13.752Z,5.67
2019-02-20T23:46:13.766Z,5.66
2019-02-20T23:47:13.729Z,5.66